sensor_id;sensor_type;location;lat;lon;timestamp;pressure;altitude;pressure_sealevel;temperature;humidity
70254;BME280;57649;42.968;1.608;2024-02-28T00:00:25;97556.81;;;3.99;100.00
70254;BME280;57649;42.968;1.608;2024-02-28T00:02:51;97569.69;;;4.03;100.00
70254;BME280;57649;42.968;1.608;2024-02-28T00:05:16;97564.88;;;4.09;100.00
70254;BME280;57649;42.968;1.608;2024-02-28T00:07:42;97571.09;;;4.19;100.00
70254;BME280;57649;42.968;1.608;2024-02-28T00:10:07;97563.50;;;4.26;100.00
70254;BME280;57649;42.968;1.608;2024-02-28T00:12:33;97565.94;;;4.29;100.00
70254;BME280;57649;42.968;1.608;2024-02-28T00:14:59;97572.19;;;4.28;100.00
70254;BME280;57649;42.968;1.608;2024-02-28T00:17:25;97570.59;;;4.36;100.00
70254;BME280;57649;42.968;1.608;2024-02-28T00:19:50;97562.97;;;4.43;100.00
70254;BME280;57649;42.968;1.608;2024-02-28T00:22:16;97576.56;;;4.50;100.00
70254;BME280;57649;42.968;1.608;2024-02-28T00:24:41;97566.03;;;4.59;100.00
70254;BME280;57649;42.968;1.608;2024-02-28T00:27:07;97574.50;;;4.53;100.00
70254;BME280;57649;42.968;1.608;2024-02-28T00:29:32;97585.69;;;4.57;100.00
70254;BME280;57649;42.968;1.608;2024-02-28T00:31:57;97590.50;;;4.63;100.00
70254;BME280;57649;42.968;1.608;2024-02-28T00:34:23;97584.88;;;4.56;100.00
70254;BME280;57649;42.968;1.608;2024-02-28T00:36:48;97581.59;;;4.64;100.00
70254;BME280;57649;42.968;1.608;2024-02-28T00:39:14;97572.16;;;4.71;100.00
70254;BME280;57649;42.968;1.608;2024-02-28T00:41:39;97571.16;;;4.72;100.00
70254;BME280;57649;42.968;1.608;2024-02-28T00:44:04;97567.69;;;4.72;100.00
70254;BME280;57649;42.968;1.608;2024-02-28T00:46:30;97581.41;;;4.77;100.00
70254;BME280;57649;42.968;1.608;2024-02-28T00:48:55;97574.09;;;4.69;100.00
70254;BME280;57649;42.968;1.608;2024-02-28T00:51:20;97583.22;;;4.76;100.00
70254;BME280;57649;42.968;1.608;2024-02-28T00:53:46;97586.13;;;4.73;100.00
70254;BME280;57649;42.968;1.608;2024-02-28T00:56:11;97600.81;;;4.77;100.00
70254;BME280;57649;42.968;1.608;2024-02-28T00:58:36;97591.56;;;4.72;100.00
70254;BME280;57649;42.968;1.608;2024-02-28T01:01:04;97599.25;;;4.75;100.00
70254;BME280;57649;42.968;1.608;2024-02-28T01:03:29;97603.47;;;4.77;100.00
70254;BME280;57649;42.968;1.608;2024-02-28T01:05:54;97590.19;;;4.77;100.00
70254;BME280;57649;42.968;1.608;2024-02-28T01:08:20;97606.00;;;4.79;100.00
70254;BME280;57649;42.968;1.608;2024-02-28T01:10:46;97600.56;;;4.80;100.00
70254;BME280;57649;42.968;1.608;2024-02-28T01:13:11;97596.50;;;4.76;100.00
70254;BME280;57649;42.968;1.608;2024-02-28T01:15:39;97598.75;;;4.81;100.00
70254;BME280;57649;42.968;1.608;2024-02-28T01:18:06;97596.81;;;4.83;100.00
70254;BME280;57649;42.968;1.608;2024-02-28T01:20:31;97586.66;;;4.67;100.00
70254;BME280;57649;42.968;1.608;2024-02-28T01:22:56;97587.53;;;4.77;100.00
70254;BME280;57649;42.968;1.608;2024-02-28T01:25:22;97597.31;;;4.77;100.00
70254;BME280;57649;42.968;1.608;2024-02-28T01:27:47;97586.50;;;4.69;100.00
70254;BME280;57649;42.968;1.608;2024-02-28T01:30:13;97607.41;;;4.83;100.00
70254;BME280;57649;42.968;1.608;2024-02-28T01:32:38;97609.94;;;4.85;100.00
70254;BME280;57649;42.968;1.608;2024-02-28T01:35:04;97607.53;;;4.81;100.00
70254;BME280;57649;42.968;1.608;2024-02-28T01:37:29;97610.06;;;4.83;100.00
70254;BME280;57649;42.968;1.608;2024-02-28T01:39:55;97604.63;;;4.85;100.00
70254;BME280;57649;42.968;1.608;2024-02-28T01:42:20;97611.28;;;4.79;100.00
70254;BME280;57649;42.968;1.608;2024-02-28T01:44:47;97608.00;;;4.87;100.00
70254;BME280;57649;42.968;1.608;2024-02-28T01:47:14;97603.47;;;4.77;100.00
70254;BME280;57649;42.968;1.608;2024-02-28T01:49:41;97602.38;;;4.80;100.00
70254;BME280;57649;42.968;1.608;2024-02-28T01:52:08;97604.06;;;4.81;100.00
70254;BME280;57649;42.968;1.608;2024-02-28T01:54:34;97606.94;;;4.78;100.00
70254;BME280;57649;42.968;1.608;2024-02-28T01:57:00;97599.56;;;4.81;100.00
70254;BME280;57649;42.968;1.608;2024-02-28T01:59:26;97608.59;;;4.90;100.00
70254;BME280;57649;42.968;1.608;2024-02-28T02:01:51;97605.66;;;4.72;100.00
70254;BME280;57649;42.968;1.608;2024-02-28T02:04:17;97590.91;;;4.79;100.00
70254;BME280;57649;42.968;1.608;2024-02-28T02:06:43;97600.09;;;4.75;100.00
70254;BME280;57649;42.968;1.608;2024-02-28T02:09:10;97613.81;;;4.80;100.00
70254;BME280;57649;42.968;1.608;2024-02-28T02:11:37;97608.75;;;4.77;100.00
70254;BME280;57649;42.968;1.608;2024-02-28T02:14:03;97614.78;;;4.79;100.00
70254;BME280;57649;42.968;1.608;2024-02-28T02:16:28;97607.69;;;4.80;100.00
70254;BME280;57649;42.968;1.608;2024-02-28T02:18:55;97606.94;;;4.78;100.00
70254;BME280;57649;42.968;1.608;2024-02-28T02:21:23;97611.94;;;4.71;100.00
70254;BME280;57649;42.968;1.608;2024-02-28T02:23:52;97603.59;;;4.76;100.00
70254;BME280;57649;42.968;1.608;2024-02-28T02:26:17;97598.41;;;4.74;100.00
70254;BME280;57649;42.968;1.608;2024-02-28T02:28:43;97617.47;;;4.68;100.00
70254;BME280;57649;42.968;1.608;2024-02-28T02:31:10;97608.16;;;4.74;100.00
70254;BME280;57649;42.968;1.608;2024-02-28T02:33:35;97593.97;;;4.75;100.00
70254;BME280;57649;42.968;1.608;2024-02-28T02:36:01;97602.16;;;4.72;100.00
70254;BME280;57649;42.968;1.608;2024-02-28T02:38:26;97607.94;;;4.77;100.00
70254;BME280;57649;42.968;1.608;2024-02-28T02:40:52;97619.63;;;4.74;100.00
70254;BME280;57649;42.968;1.608;2024-02-28T02:43:17;97610.03;;;4.62;100.00
70254;BME280;57649;42.968;1.608;2024-02-28T02:45:43;97622.75;;;4.79;100.00
70254;BME280;57649;42.968;1.608;2024-02-28T02:48:09;97615.19;;;4.75;100.00
70254;BME280;57649;42.968;1.608;2024-02-28T02:50:34;97595.56;;;4.66;100.00
70254;BME280;57649;42.968;1.608;2024-02-28T02:53:00;97620.84;;;4.70;100.00
70254;BME280;57649;42.968;1.608;2024-02-28T02:55:25;97617.72;;;4.76;100.00
70254;BME280;57649;42.968;1.608;2024-02-28T02:57:50;97612.84;;;4.81;100.00
70254;BME280;57649;42.968;1.608;2024-02-28T03:00:16;97618.72;;;4.85;100.00
70254;BME280;57649;42.968;1.608;2024-02-28T03:02:42;97604.16;;;4.79;100.00
70254;BME280;57649;42.968;1.608;2024-02-28T03:05:07;97605.28;;;4.77;100.00
70254;BME280;57649;42.968;1.608;2024-02-28T03:07:33;97607.94;;;4.77;100.00
70254;BME280;57649;42.968;1.608;2024-02-28T03:09:58;97609.34;;;4.81;100.00
70254;BME280;57649;42.968;1.608;2024-02-28T03:12:24;97621.56;;;4.72;100.00
70254;BME280;57649;42.968;1.608;2024-02-28T03:14:50;97616.56;;;4.58;100.00
70254;BME280;57649;42.968;1.608;2024-02-28T03:17:15;97620.84;;;4.70;100.00
70254;BME280;57649;42.968;1.608;2024-02-28T03:19:43;97623.03;;;4.65;100.00
70254;BME280;57649;42.968;1.608;2024-02-28T03:22:09;97629.97;;;4.77;100.00
70254;BME280;57649;42.968;1.608;2024-02-28T03:24:34;97640.50;;;4.68;100.00
70254;BME280;57649;42.968;1.608;2024-02-28T03:27:01;97639.41;;;4.70;100.00
70254;BME280;57649;42.968;1.608;2024-02-28T03:29:27;97646.19;;;4.63;100.00
70254;BME280;57649;42.968;1.608;2024-02-28T03:31:52;97652.03;;;4.78;100.00
70254;BME280;57649;42.968;1.608;2024-02-28T03:34:18;97648.34;;;4.69;100.00
70254;BME280;57649;42.968;1.608;2024-02-28T03:36:43;97648.66;;;4.76;100.00
70254;BME280;57649;42.968;1.608;2024-02-28T03:39:08;97622.66;;;4.70;100.00
70254;BME280;57649;42.968;1.608;2024-02-28T03:41:34;97653.25;;;4.74;100.00
70254;BME280;57649;42.968;1.608;2024-02-28T03:44:00;97656.19;;;4.71;100.00
70254;BME280;57649;42.968;1.608;2024-02-28T03:46:25;97651.72;;;4.71;100.00
70254;BME280;57649;42.968;1.608;2024-02-28T03:48:51;97652.56;;;4.72;100.00
70254;BME280;57649;42.968;1.608;2024-02-28T03:51:16;97650.50;;;4.75;100.00
70254;BME280;57649;42.968;1.608;2024-02-28T03:53:41;97655.91;;;4.74;100.00
70254;BME280;57649;42.968;1.608;2024-02-28T03:56:07;97656.97;;;4.82;100.00
70254;BME280;57649;42.968;1.608;2024-02-28T03:58:32;97658.44;;;4.75;100.00
70254;BME280;57649;42.968;1.608;2024-02-28T04:00:57;97652.91;;;4.78;100.00
70254;BME280;57649;42.968;1.608;2024-02-28T04:03:23;97659.50;;;4.84;100.00
70254;BME280;57649;42.968;1.608;2024-02-28T04:05:48;97673.66;;;4.73;100.00
70254;BME280;57649;42.968;1.608;2024-02-28T04:08:14;97664.00;;;4.72;100.00
70254;BME280;57649;42.968;1.608;2024-02-28T04:10:39;97661.94;;;4.76;100.00
70254;BME280;57649;42.968;1.608;2024-02-28T04:13:04;97675.59;;;4.71;100.00
70254;BME280;57649;42.968;1.608;2024-02-28T04:15:30;97667.63;;;4.71;100.00
70254;BME280;57649;42.968;1.608;2024-02-28T04:17:55;97673.41;;;4.65;100.00
70254;BME280;57649;42.968;1.608;2024-02-28T04:20:21;97666.41;;;4.75;100.00
70254;BME280;57649;42.968;1.608;2024-02-28T04:22:46;97669.53;;;4.80;100.00
70254;BME280;57649;42.968;1.608;2024-02-28T04:25:12;97671.94;;;4.72;100.00
70254;BME280;57649;42.968;1.608;2024-02-28T04:27:38;97665.66;;;4.85;100.00
70254;BME280;57649;42.968;1.608;2024-02-28T04:30:04;97679.19;;;4.70;100.00
70254;BME280;57649;42.968;1.608;2024-02-28T04:32:30;97674.41;;;4.64;100.00
70254;BME280;57649;42.968;1.608;2024-02-28T04:34:55;97670.16;;;4.61;100.00
70254;BME280;57649;42.968;1.608;2024-02-28T04:37:21;97677.41;;;4.71;100.00
70254;BME280;57649;42.968;1.608;2024-02-28T04:39:47;97680.19;;;4.69;100.00
70254;BME280;57649;42.968;1.608;2024-02-28T04:42:13;97665.44;;;4.76;100.00
70254;BME280;57649;42.968;1.608;2024-02-28T04:44:38;97680.47;;;4.87;100.00
70254;BME280;57649;42.968;1.608;2024-02-28T04:47:04;97671.34;;;4.80;100.00
70254;BME280;57649;42.968;1.608;2024-02-28T04:49:30;97676.38;;;4.83;100.00
70254;BME280;57649;42.968;1.608;2024-02-28T04:51:55;97668.06;;;4.88;100.00
70254;BME280;57649;42.968;1.608;2024-02-28T04:54:20;97678.91;;;4.85;100.00
70254;BME280;57649;42.968;1.608;2024-02-28T04:56:46;97672.94;;;4.71;100.00
70254;BME280;57649;42.968;1.608;2024-02-28T04:59:12;97671.22;;;4.70;100.00
70254;BME280;57649;42.968;1.608;2024-02-28T05:01:40;97691.22;;;4.86;100.00
70254;BME280;57649;42.968;1.608;2024-02-28T05:04:07;97692.81;;;4.77;100.00
70254;BME280;57649;42.968;1.608;2024-02-28T05:06:33;97678.72;;;4.65;100.00
70254;BME280;57649;42.968;1.608;2024-02-28T05:08:59;97684.25;;;4.73;100.00
70254;BME280;57649;42.968;1.608;2024-02-28T05:11:25;97694.63;;;4.76;100.00
70254;BME280;57649;42.968;1.608;2024-02-28T05:13:50;97689.19;;;4.67;100.00
70254;BME280;57649;42.968;1.608;2024-02-28T05:16:21;97686.34;;;4.58;100.00
70254;BME280;57649;42.968;1.608;2024-02-28T05:18:46;97695.09;;;4.70;100.00
70254;BME280;57649;42.968;1.608;2024-02-28T05:21:12;97695.69;;;4.74;100.00
70254;BME280;57649;42.968;1.608;2024-02-28T05:23:38;97697.53;;;4.62;100.00
70254;BME280;57649;42.968;1.608;2024-02-28T05:26:03;97695.84;;;4.61;100.00
70254;BME280;57649;42.968;1.608;2024-02-28T05:28:31;97690.22;;;4.54;100.00
70254;BME280;57649;42.968;1.608;2024-02-28T05:30:58;97689.19;;;4.67;100.00
70254;BME280;57649;42.968;1.608;2024-02-28T05:33:24;97701.88;;;4.63;100.00
70254;BME280;57649;42.968;1.608;2024-02-28T05:35:49;97694.63;;;4.65;100.00
70254;BME280;57649;42.968;1.608;2024-02-28T05:38:15;97716.34;;;4.59;100.00
70254;BME280;57649;42.968;1.608;2024-02-28T05:40:43;97712.75;;;4.60;100.00
70254;BME280;57649;42.968;1.608;2024-02-28T05:43:09;97717.44;;;4.56;100.00
70254;BME280;57649;42.968;1.608;2024-02-28T05:45:34;97709.84;;;4.52;100.00
70254;BME280;57649;42.968;1.608;2024-02-28T05:47:59;97706.13;;;4.54;100.00
70254;BME280;57649;42.968;1.608;2024-02-28T05:50:25;97734.78;;;4.60;100.00
70254;BME280;57649;42.968;1.608;2024-02-28T05:52:50;97704.19;;;4.56;100.00
70254;BME280;57649;42.968;1.608;2024-02-28T05:55:17;97724.78;;;4.64;100.00
70254;BME280;57649;42.968;1.608;2024-02-28T05:57:42;97721.16;;;4.65;100.00
70254;BME280;57649;42.968;1.608;2024-02-28T06:00:08;97732.00;;;4.62;100.00
70254;BME280;57649;42.968;1.608;2024-02-28T06:02:37;97734.88;;;4.70;100.00
70254;BME280;57649;42.968;1.608;2024-02-28T06:05:02;97741.88;;;4.71;100.00
70254;BME280;57649;42.968;1.608;2024-02-28T06:07:28;97728.16;;;4.66;100.00
70254;BME280;57649;42.968;1.608;2024-02-28T06:09:53;97738.25;;;4.72;100.00
70254;BME280;57649;42.968;1.608;2024-02-28T06:12:19;97728.16;;;4.66;100.00
70254;BME280;57649;42.968;1.608;2024-02-28T06:14:44;97727.03;;;4.69;100.00
70254;BME280;57649;42.968;1.608;2024-02-28T06:17:09;97735.16;;;4.67;100.00
70254;BME280;57649;42.968;1.608;2024-02-28T06:19:35;97738.84;;;4.76;100.00
70254;BME280;57649;42.968;1.608;2024-02-28T06:22:00;97748.41;;;4.67;100.00
70254;BME280;57649;42.968;1.608;2024-02-28T06:24:26;97763.56;;;4.65;100.00
70254;BME280;57649;42.968;1.608;2024-02-28T06:26:51;97748.53;;;4.66;100.00
70254;BME280;57649;42.968;1.608;2024-02-28T06:29:16;97744.06;;;4.66;100.00
70254;BME280;57649;42.968;1.608;2024-02-28T06:31:42;97755.25;;;4.70;100.00
70254;BME280;57649;42.968;1.608;2024-02-28T06:34:07;97746.59;;;4.68;100.00
70254;BME280;57649;42.968;1.608;2024-02-28T06:36:33;97752.00;;;4.66;100.00
70254;BME280;57649;42.968;1.608;2024-02-28T06:38:58;97756.09;;;4.70;100.00
70254;BME280;57649;42.968;1.608;2024-02-28T06:41:24;97762.00;;;4.74;100.00
70254;BME280;57649;42.968;1.608;2024-02-28T06:43:49;97751.28;;;4.75;100.00
70254;BME280;57649;42.968;1.608;2024-02-28T06:46:14;97754.91;;;4.63;100.00
70254;BME280;57649;42.968;1.608;2024-02-28T06:48:40;97754.56;;;4.56;100.00
70254;BME280;57649;42.968;1.608;2024-02-28T06:51:05;97754.44;;;4.58;100.00
70254;BME280;57649;42.968;1.608;2024-02-28T06:53:30;97739.72;;;4.54;100.00
70254;BME280;57649;42.968;1.608;2024-02-28T06:55:56;97742.84;;;4.59;100.00
70254;BME280;57649;42.968;1.608;2024-02-28T06:58:21;97769.34;;;4.70;100.00
70254;BME280;57649;42.968;1.608;2024-02-28T07:00:49;97762.03;;;4.62;100.00
70254;BME280;57649;42.968;1.608;2024-02-28T07:03:15;97770.47;;;4.56;100.00
70254;BME280;57649;42.968;1.608;2024-02-28T07:05:40;97770.94;;;4.61;100.00
70254;BME280;57649;42.968;1.608;2024-02-28T07:08:06;97785.06;;;4.62;100.00
70254;BME280;57649;42.968;1.608;2024-02-28T07:10:31;97788.88;;;4.80;100.00
70254;BME280;57649;42.968;1.608;2024-02-28T07:12:57;97783.84;;;4.66;100.00
70254;BME280;57649;42.968;1.608;2024-02-28T07:15:22;97788.03;;;4.69;100.00
70254;BME280;57649;42.968;1.608;2024-02-28T07:17:48;97801.19;;;4.70;100.00
70254;BME280;57649;42.968;1.608;2024-02-28T07:20:13;97804.56;;;4.84;100.00
70254;BME280;57649;42.968;1.608;2024-02-28T07:22:39;97791.44;;;4.71;100.00
70254;BME280;57649;42.968;1.608;2024-02-28T07:25:05;97796.13;;;4.78;100.00
70254;BME280;57649;42.968;1.608;2024-02-28T07:27:33;97808.69;;;4.76;100.00
70254;BME280;57649;42.968;1.608;2024-02-28T07:29:58;97806.25;;;4.85;100.00
70254;BME280;57649;42.968;1.608;2024-02-28T07:32:23;97789.13;;;4.77;100.00
70254;BME280;57649;42.968;1.608;2024-02-28T07:34:49;97792.84;;;4.86;100.00
70254;BME280;57649;42.968;1.608;2024-02-28T07:37:14;97799.59;;;4.90;100.00
70254;BME280;57649;42.968;1.608;2024-02-28T07:39:40;97803.34;;;4.88;100.00
70254;BME280;57649;42.968;1.608;2024-02-28T07:42:05;97799.28;;;4.84;100.00
70254;BME280;57649;42.968;1.608;2024-02-28T07:44:31;97793.81;;;4.85;100.00
70254;BME280;57649;42.968;1.608;2024-02-28T07:46:59;97812.50;;;4.95;100.00
70254;BME280;57649;42.968;1.608;2024-02-28T07:49:25;97811.44;;;4.86;100.00
70254;BME280;57649;42.968;1.608;2024-02-28T07:51:51;97807.34;;;4.82;100.00
70254;BME280;57649;42.968;1.608;2024-02-28T07:54:16;97824.53;;;5.10;100.00
70254;BME280;57649;42.968;1.608;2024-02-28T07:56:44;97815.41;;;4.80;100.00
70254;BME280;57649;42.968;1.608;2024-02-28T07:59:09;97813.34;;;4.95;100.00
70254;BME280;57649;42.968;1.608;2024-02-28T08:01:35;97809.38;;;4.90;100.00
70254;BME280;57649;42.968;1.608;2024-02-28T08:04:01;97836.97;;;4.87;100.00
70254;BME280;57649;42.968;1.608;2024-02-28T08:06:27;97827.34;;;4.86;100.00
70254;BME280;57649;42.968;1.608;2024-02-28T08:08:52;97826.72;;;4.94;100.00
70254;BME280;57649;42.968;1.608;2024-02-28T08:11:18;97845.28;;;5.05;100.00
70254;BME280;57649;42.968;1.608;2024-02-28T08:13:44;97841.09;;;4.91;100.00
70254;BME280;57649;42.968;1.608;2024-02-28T08:16:10;97841.09;;;5.03;100.00
70254;BME280;57649;42.968;1.608;2024-02-28T08:18:35;97826.38;;;4.87;100.00
70254;BME280;57649;42.968;1.608;2024-02-28T08:21:01;97835.19;;;4.99;100.00
70254;BME280;57649;42.968;1.608;2024-02-28T08:23:29;97847.59;;;5.10;100.00
70254;BME280;57649;42.968;1.608;2024-02-28T08:25:54;97839.50;;;5.00;100.00
70254;BME280;57649;42.968;1.608;2024-02-28T08:28:19;97833.22;;;5.01;100.00
70254;BME280;57649;42.968;1.608;2024-02-28T08:30:45;97833.63;;;4.96;100.00
70254;BME280;57649;42.968;1.608;2024-02-28T08:33:10;97827.72;;;4.93;100.00
70254;BME280;57649;42.968;1.608;2024-02-28T08:35:36;97844.56;;;5.03;100.00
70254;BME280;57649;42.968;1.608;2024-02-28T08:38:01;97844.81;;;5.11;100.00
70254;BME280;57649;42.968;1.608;2024-02-28T08:40:28;97838.78;;;5.09;100.00
70254;BME280;57649;42.968;1.608;2024-02-28T08:42:54;97851.69;;;5.14;100.00
70254;BME280;57649;42.968;1.608;2024-02-28T08:45:32;97844.31;;;5.17;100.00
70254;BME280;57649;42.968;1.608;2024-02-28T08:47:57;97835.72;;;5.25;100.00
70254;BME280;57649;42.968;1.608;2024-02-28T08:50:27;97836.31;;;5.29;100.00
70254;BME280;57649;42.968;1.608;2024-02-28T08:52:52;97831.22;;;5.48;100.00
70254;BME280;57649;42.968;1.608;2024-02-28T08:55:17;97836.59;;;5.58;100.00
70254;BME280;57649;42.968;1.608;2024-02-28T08:57:48;97828.50;;;5.59;100.00
70254;BME280;57649;42.968;1.608;2024-02-28T09:00:14;97828.75;;;5.56;100.00
70254;BME280;57649;42.968;1.608;2024-02-28T09:02:40;97828.97;;;5.65;100.00
70254;BME280;57649;42.968;1.608;2024-02-28T09:05:06;97829.63;;;5.78;100.00
70254;BME280;57649;42.968;1.608;2024-02-28T09:07:32;97833.72;;;5.82;100.00
70254;BME280;57649;42.968;1.608;2024-02-28T09:10:03;97826.22;;;5.87;100.00
70254;BME280;57649;42.968;1.608;2024-02-28T09:12:28;97823.09;;;5.82;100.00
70254;BME280;57649;42.968;1.608;2024-02-28T09:14:54;97819.81;;;5.90;100.00
70254;BME280;57649;42.968;1.608;2024-02-28T09:17:20;97835.34;;;6.06;100.00
70254;BME280;57649;42.968;1.608;2024-02-28T09:19:45;97839.34;;;6.00;100.00
70254;BME280;57649;42.968;1.608;2024-02-28T09:22:10;97846.63;;;6.19;100.00
70254;BME280;57649;42.968;1.608;2024-02-28T09:24:37;97850.19;;;6.08;100.00
70254;BME280;57649;42.968;1.608;2024-02-28T09:27:02;97840.41;;;6.09;100.00
70254;BME280;57649;42.968;1.608;2024-02-28T09:29:28;97818.22;;;5.98;100.00
70254;BME280;57649;42.968;1.608;2024-02-28T09:31:54;97817.25;;;6.00;100.00
70254;BME280;57649;42.968;1.608;2024-02-28T09:34:19;97821.91;;;6.07;100.00
70254;BME280;57649;42.968;1.608;2024-02-28T09:36:45;97812.53;;;6.03;100.00
70254;BME280;57649;42.968;1.608;2024-02-28T09:39:14;97816.53;;;6.19;100.00
70254;BME280;57649;42.968;1.608;2024-02-28T09:41:42;97820.19;;;6.48;100.00
70254;BME280;57649;42.968;1.608;2024-02-28T09:44:08;97816.44;;;6.51;100.00
70254;BME280;57649;42.968;1.608;2024-02-28T09:46:34;97799.78;;;6.49;100.00
70254;BME280;57649;42.968;1.608;2024-02-28T09:49:03;97803.84;;;6.53;100.00
70254;BME280;57649;42.968;1.608;2024-02-28T09:51:33;97815.03;;;6.47;100.00
70254;BME280;57649;42.968;1.608;2024-02-28T09:54:02;97806.97;;;6.37;100.00
70254;BME280;57649;42.968;1.608;2024-02-28T09:56:29;97808.22;;;6.33;100.00
70254;BME280;57649;42.968;1.608;2024-02-28T09:58:55;97820.97;;;6.39;100.00
70254;BME280;57649;42.968;1.608;2024-02-28T10:01:22;97826.31;;;6.39;100.00
70254;BME280;57649;42.968;1.608;2024-02-28T10:03:50;97818.66;;;6.46;100.00
70254;BME280;57649;42.968;1.608;2024-02-28T10:06:20;97830.34;;;6.64;100.00
70254;BME280;57649;42.968;1.608;2024-02-28T10:08:46;97831.06;;;6.66;100.00
70254;BME280;57649;42.968;1.608;2024-02-28T10:11:18;97816.09;;;6.65;100.00
70254;BME280;57649;42.968;1.608;2024-02-28T10:13:45;97827.88;;;6.72;100.00
70254;BME280;57649;42.968;1.608;2024-02-28T10:16:10;97828.28;;;6.68;100.00
70254;BME280;57649;42.968;1.608;2024-02-28T10:18:39;97845.81;;;6.70;100.00
70254;BME280;57649;42.968;1.608;2024-02-28T10:21:05;97851.03;;;6.82;100.00
70254;BME280;57649;42.968;1.608;2024-02-28T10:23:30;97850.25;;;7.01;100.00
70254;BME280;57649;42.968;1.608;2024-02-28T10:25:56;97844.00;;;7.11;97.34
70254;BME280;57649;42.968;1.608;2024-02-28T10:28:22;97854.97;;;7.28;99.24
70254;BME280;57649;42.968;1.608;2024-02-28T10:30:47;97851.06;;;7.32;96.92
70254;BME280;57649;42.968;1.608;2024-02-28T10:33:13;97842.28;;;7.61;98.79
70254;BME280;57649;42.968;1.608;2024-02-28T10:35:43;97846.91;;;7.68;94.53
70254;BME280;57649;42.968;1.608;2024-02-28T10:38:12;97851.66;;;7.65;95.34
70254;BME280;57649;42.968;1.608;2024-02-28T10:40:40;97853.06;;;7.59;95.88
70254;BME280;57649;42.968;1.608;2024-02-28T10:43:08;97853.22;;;7.67;95.18
70254;BME280;57649;42.968;1.608;2024-02-28T10:45:35;97865.69;;;7.57;92.30
70254;BME280;57649;42.968;1.608;2024-02-28T10:48:02;97843.94;;;7.62;91.17
70254;BME280;57649;42.968;1.608;2024-02-28T10:50:28;97851.69;;;7.84;95.09
70254;BME280;57649;42.968;1.608;2024-02-28T10:52:54;97855.63;;;7.90;95.66
70254;BME280;57649;42.968;1.608;2024-02-28T10:55:26;97871.34;;;7.93;92.05
70254;BME280;57649;42.968;1.608;2024-02-28T10:58:09;97863.88;;;7.87;90.83
70254;BME280;57649;42.968;1.608;2024-02-28T11:00:39;97868.25;;;7.98;92.77
70254;BME280;57649;42.968;1.608;2024-02-28T11:03:13;97859.53;;;7.96;90.64
70254;BME280;57649;42.968;1.608;2024-02-28T11:05:42;97857.16;;;7.93;87.66
70254;BME280;57649;42.968;1.608;2024-02-28T11:08:09;97855.88;;;7.97;92.08
70254;BME280;57649;42.968;1.608;2024-02-28T11:10:41;97850.53;;;8.16;92.33
70254;BME280;57649;42.968;1.608;2024-02-28T11:13:08;97839.72;;;8.37;95.72
70254;BME280;57649;42.968;1.608;2024-02-28T11:15:36;97862.34;;;8.43;90.86
70254;BME280;57649;42.968;1.608;2024-02-28T11:18:08;97854.44;;;8.51;85.79
70254;BME280;57649;42.968;1.608;2024-02-28T11:20:34;97849.25;;;8.59;83.75
70254;BME280;57649;42.968;1.608;2024-02-28T11:23:00;97847.72;;;8.47;84.19
70254;BME280;57649;42.968;1.608;2024-02-28T11:25:25;97857.53;;;8.56;79.29
70254;BME280;57649;42.968;1.608;2024-02-28T11:27:53;97855.88;;;8.45;82.01
70254;BME280;57649;42.968;1.608;2024-02-28T11:30:28;97850.81;;;8.33;80.11
70254;BME280;57649;42.968;1.608;2024-02-28T11:32:56;97837.06;;;8.27;80.50
70254;BME280;57649;42.968;1.608;2024-02-28T11:35:27;97868.66;;;8.42;81.77
70254;BME280;57649;42.968;1.608;2024-02-28T11:37:54;97850.13;;;8.31;80.35
70254;BME280;57649;42.968;1.608;2024-02-28T11:40:25;97865.72;;;8.35;80.05
70254;BME280;57649;42.968;1.608;2024-02-28T11:42:51;97859.94;;;8.50;80.61
70254;BME280;57649;42.968;1.608;2024-02-28T11:45:17;97854.59;;;8.59;81.08
70254;BME280;57649;42.968;1.608;2024-02-28T11:47:43;97852.31;;;8.64;75.60
70254;BME280;57649;42.968;1.608;2024-02-28T11:50:09;97859.59;;;8.72;76.09
70254;BME280;57649;42.968;1.608;2024-02-28T11:52:34;97851.56;;;8.82;81.40
70254;BME280;57649;42.968;1.608;2024-02-28T11:55:00;97855.50;;;8.78;77.05
70254;BME280;57649;42.968;1.608;2024-02-28T11:57:26;97861.81;;;8.86;78.21
70254;BME280;57649;42.968;1.608;2024-02-28T11:59:51;97862.88;;;9.03;84.13
70254;BME280;57649;42.968;1.608;2024-02-28T12:02:17;97853.50;;;8.90;77.10
70254;BME280;57649;42.968;1.608;2024-02-28T12:04:44;97850.13;;;8.88;74.32
70254;BME280;57649;42.968;1.608;2024-02-28T12:07:10;97851.56;;;8.82;77.27
70254;BME280;57649;42.968;1.608;2024-02-28T12:09:35;97845.75;;;8.96;78.96
70254;BME280;57649;42.968;1.608;2024-02-28T12:12:01;97846.69;;;9.05;75.93
70254;BME280;57649;42.968;1.608;2024-02-28T12:14:27;97843.56;;;9.10;78.77
70254;BME280;57649;42.968;1.608;2024-02-28T12:16:57;97823.25;;;8.99;77.11
70254;BME280;57649;42.968;1.608;2024-02-28T12:19:24;97834.84;;;8.80;75.49
70254;BME280;57649;42.968;1.608;2024-02-28T12:21:49;97824.25;;;8.98;78.43
70254;BME280;57649;42.968;1.608;2024-02-28T12:24:15;97831.84;;;8.93;77.28
70254;BME280;57649;42.968;1.608;2024-02-28T12:26:41;97841.56;;;9.21;78.58
70254;BME280;57649;42.968;1.608;2024-02-28T12:29:06;97828.97;;;9.04;74.87
70254;BME280;57649;42.968;1.608;2024-02-28T12:31:32;97829.03;;;9.22;76.48
70254;BME280;57649;42.968;1.608;2024-02-28T12:33:57;97826.00;;;9.35;76.04
70254;BME280;57649;42.968;1.608;2024-02-28T12:36:23;97821.44;;;9.63;73.36
70254;BME280;57649;42.968;1.608;2024-02-28T12:38:48;97822.50;;;9.34;72.44
70254;BME280;57649;42.968;1.608;2024-02-28T12:41:14;97803.81;;;9.70;69.20
70254;BME280;57649;42.968;1.608;2024-02-28T12:43:40;97810.00;;;9.71;72.24
70254;BME280;57649;42.968;1.608;2024-02-28T12:46:06;97810.75;;;9.81;70.68
70254;BME280;57649;42.968;1.608;2024-02-28T12:48:37;97798.75;;;10.03;67.19
70254;BME280;57649;42.968;1.608;2024-02-28T12:51:03;97794.72;;;9.63;64.25
70254;BME280;57649;42.968;1.608;2024-02-28T12:53:30;97798.16;;;9.91;66.61
70254;BME280;57649;42.968;1.608;2024-02-28T12:55:55;97773.56;;;9.70;66.03